SJT - San Angelo Rgnl/Mathis Fld

Pirep is a free, collaborative database of all public and private airports located within the United States. All pilots are welcome to contribute, edit, and improve any airport they have local knowledge about, no registration required.
Uploaded photos will be licensed under a CC BY-SA 4.0 license. Please only upload photos you have the rights to use.
Tags
Public
Car Rental
METAR / TAF
Edit Tags
Food
Camping
Lodging
Bicycles
Swimming
Golfing
Fishing
Hot Springs
Museum
Flying Clubs
Airpark
Upcoming Events
No upcoming events. Is anything happening here soon?
*
*
*

Where exactly on/near the airport is this event taking place?

Is there a webpage with more information for this event?

Who should be contacted for more information?

What is this event all about?

Repeat every
Description
Last updated: 2023-05-29 16:31:24 CDT
Transient Parking
Fuel Location
Landing & Tie-down Fees
Crew Car Availability
Flying Clubs
WiFi Access
Airport Statistics
Location: San Angelo, TX
Elevation: 1,918ft
Sectional: San Antonio
Activation date: Sep 1943
Fuel: 100LL, A (prices)
Runway 18/36: 8,054ft
Runway 03/21: 5,940ft
Runway 09/27: 4,406ft
Access: Open to the public
Current Weather — VFR
  • Weather data is strictly informational and not for flight planning purposes.
  • METAR
    2024-05-29 10:51:00 CDT
    Ceiling Wind Temperature Dewpoint Weather Visbility
    Sky clear Variable 78°F 64°F N/A 10SM
    Raw: KSJT 291551Z VRB06KT 10SM CLR 26/18 A3010 RMK AO2 SLP169 T02610183
  • TAF
    2024-05-29 10:00:00 CDT – 2024-05-29 12:00:00 CDT
    Ceiling Wind Weather Visbility
    3,500ft 150° @ 14kt, gusts 20kt N/A 6SM
    Clouds: Broken @ 3,500ft
    Raw: KSJT 291434Z 2915/3012 15014G20KT P6SM BKN035 FM291700 15010KT P6SM SCT050 FM300900 10010KT P6SM BKN025
  • TAF
    2024-05-29 12:00:00 CDT – 2024-05-30 04:00:00 CDT
    Ceiling Wind Weather Visbility
    Sky clear 150° @ 10kt N/A 6SM
    Clouds: Scattered @ 5,000ft
    Raw: KSJT 291434Z 2915/3012 15014G20KT P6SM BKN035 FM291700 15010KT P6SM SCT050 FM300900 10010KT P6SM BKN025
  • TAF
    2024-05-30 04:00:00 CDT – 2024-05-30 07:00:00 CDT
    Ceiling Wind Weather Visbility
    2,500ft 100° @ 10kt N/A 6SM
    Clouds: Broken @ 2,500ft
    Raw: KSJT 291434Z 2915/3012 15014G20KT P6SM BKN035 FM291700 15010KT P6SM SCT050 FM300900 10010KT P6SM BKN025
Click/tap to add an annotation marker to the map
Airport Webcams
No webcams added yet.
Direct links to live image URLs will be displayed inline on this page. URLs to separate webpages will be linked to.
URL:
Direct links to live image URLs will be displayed inline on this page. URLs to separate webpages will be linked to.
URL:
Remarks
  • Ppr 12 hrs for unsked acr opns with over 30 psgr seats call amgr 325-659-6409.
  • For cd if una to ctc on fss freq, ctc fort worth artcc at 817-858-7584.
  • Dusk-dawn. when atct clsd mirl rwy 18/36 preset low intst. to incr intst & actvt malsr rwy 03; reil rwy 18; papi rwys 18 & 36; hirl rwy 03/21; mirl rwy 09/27 - ctaf.
  • Fee for fuel aft hrs call 325-656-1836/1837.
  • Apch ratio 50+:1 to dsplcd thr.
Comments
Leave a comment What was your experience like at this airport?